Main page
METAR-TAF:

METAR-TAF

Airports :

Avalon Airport

Avalon, Australia

latitude: 38-02S, longitude: 144-29E, elevation: 8 m

Current weather observation

The report was made 32 minutes ago, at 02:00 UTC
Wind 17 kt from the South
Temperature 14°C
Humidity 58%
Pressure 1022 hPa
Visibility 10 km or more
Scattered clouds at a height of 3300 ft
Broken clouds at a height of 4100 ft

METAR: YMAV 160200Z AUTO 19017KT 9999 // SCT033 BKN041 14/06 Q1022

Time: 12:32 (02:32 UTC)

Forecast

The report was made 3 hours and 30 minutes ago, at 23:02 UTC
Forecast valid from 16 at 00 UTC to 17 at 00 UTC
Wind 14 kt from the South
Visibility 10 km or more
Broken clouds at a height of 3000 ft
From 16 at 0900 UTC
Wind 8 kt from the West
Visibility 10 km or more
Broken clouds at a height of 2500 ft

TAF: YMAV 152302Z 1600/1700 18014KT 9999 BKN030 FM160900 26008KT 9999 BKN025

Weather observations and forecasts of more than 4000 airports (METAR and TAF reports).

The available stations are represented by yellow and red dots on the map.

Hover mouse over dot to see the name of the station.

Then click to see weather observations and forecasts.

To change the map : click on the green buttons with a black cross to zoom in, on the green button with a dash to zoom out, or on the green arrows for adjacent maps.


METAR-TAF: